sensor_id;sensor_type;location;lat;lon;timestamp;P1;durP1;ratioP1;P2;durP2;ratioP2
71513;SDS011;59335;46.652;21.272;2023-04-24T00:02:33;6.40;;;3.67;;
71513;SDS011;59335;46.652;21.272;2023-04-24T00:05:37;6.38;;;4.00;;
71513;SDS011;59335;46.652;21.272;2023-04-24T00:08:39;7.55;;;3.97;;
71513;SDS011;59335;46.652;21.272;2023-04-24T00:11:42;7.60;;;4.03;;
71513;SDS011;59335;46.652;21.272;2023-04-24T00:14:45;6.88;;;3.80;;
71513;SDS011;59335;46.652;21.272;2023-04-24T00:17:47;7.87;;;3.43;;
71513;SDS011;59335;46.652;21.272;2023-04-24T00:20:50;6.10;;;3.63;;
71513;SDS011;59335;46.652;21.272;2023-04-24T00:23:53;6.38;;;4.03;;
71513;SDS011;59335;46.652;21.272;2023-04-24T00:26:55;6.30;;;3.72;;
71513;SDS011;59335;46.652;21.272;2023-04-24T00:29:59;7.70;;;3.67;;
71513;SDS011;59335;46.652;21.272;2023-04-24T00:33:02;8.07;;;3.80;;
71513;SDS011;59335;46.652;21.272;2023-04-24T00:36:05;6.10;;;3.80;;
71513;SDS011;59335;46.652;21.272;2023-04-24T00:39:08;6.93;;;3.63;;
71513;SDS011;59335;46.652;21.272;2023-04-24T00:42:10;6.13;;;3.70;;
71513;SDS011;59335;46.652;21.272;2023-04-24T00:45:14;5.90;;;3.50;;
71513;SDS011;59335;46.652;21.272;2023-04-24T00:48:17;6.10;;;3.70;;
71513;SDS011;59335;46.652;21.272;2023-04-24T00:51:20;7.10;;;3.50;;
71513;SDS011;59335;46.652;21.272;2023-04-24T00:54:23;6.78;;;4.20;;
71513;SDS011;59335;46.652;21.272;2023-04-24T00:57:26;6.70;;;3.58;;
71513;SDS011;59335;46.652;21.272;2023-04-24T01:00:29;6.35;;;3.85;;
71513;SDS011;59335;46.652;21.272;2023-04-24T01:03:33;5.83;;;3.67;;
71513;SDS011;59335;46.652;21.272;2023-04-24T01:06:39;5.97;;;3.70;;
71513;SDS011;59335;46.652;21.272;2023-04-24T01:09:43;5.85;;;3.42;;
71513;SDS011;59335;46.652;21.272;2023-04-24T01:12:49;6.35;;;3.60;;
71513;SDS011;59335;46.652;21.272;2023-04-24T01:15:52;6.88;;;3.88;;
71513;SDS011;59335;46.652;21.272;2023-04-24T01:18:55;6.13;;;3.43;;
71513;SDS011;59335;46.652;21.272;2023-04-24T01:21:58;5.75;;;3.63;;
71513;SDS011;59335;46.652;21.272;2023-04-24T01:25:03;5.50;;;3.50;;
71513;SDS011;59335;46.652;21.272;2023-04-24T01:28:07;5.80;;;3.50;;
71513;SDS011;59335;46.652;21.272;2023-04-24T01:31:10;5.55;;;3.38;;
71513;SDS011;59335;46.652;21.272;2023-04-24T01:34:13;6.27;;;3.70;;
71513;SDS011;59335;46.652;21.272;2023-04-24T01:37:16;6.05;;;3.63;;
71513;SDS011;59335;46.652;21.272;2023-04-24T01:40:19;6.32;;;3.65;;
71513;SDS011;59335;46.652;21.272;2023-04-24T01:43:22;6.30;;;3.60;;
71513;SDS011;59335;46.652;21.272;2023-04-24T01:46:26;6.07;;;3.20;;
71513;SDS011;59335;46.652;21.272;2023-04-24T01:49:29;6.47;;;3.60;;
71513;SDS011;59335;46.652;21.272;2023-04-24T01:52:33;6.40;;;3.40;;
71513;SDS011;59335;46.652;21.272;2023-04-24T01:55:37;6.07;;;3.70;;
71513;SDS011;59335;46.652;21.272;2023-04-24T01:58:40;6.30;;;3.53;;
71513;SDS011;59335;46.652;21.272;2023-04-24T02:01:43;6.13;;;3.65;;
71513;SDS011;59335;46.652;21.272;2023-04-24T02:04:46;6.80;;;3.50;;
71513;SDS011;59335;46.652;21.272;2023-04-24T02:07:49;5.70;;;3.60;;
71513;SDS011;59335;46.652;21.272;2023-04-24T02:10:51;5.43;;;3.35;;
71513;SDS011;59335;46.652;21.272;2023-04-24T02:13:54;6.10;;;3.50;;
71513;SDS011;59335;46.652;21.272;2023-04-24T02:16:57;5.72;;;3.92;;
71513;SDS011;59335;46.652;21.272;2023-04-24T02:20:00;6.70;;;3.40;;
71513;SDS011;59335;46.652;21.272;2023-04-24T02:23:02;5.40;;;3.47;;
71513;SDS011;59335;46.652;21.272;2023-04-24T02:26:05;5.72;;;3.60;;
71513;SDS011;59335;46.652;21.272;2023-04-24T02:29:08;5.85;;;3.30;;
71513;SDS011;59335;46.652;21.272;2023-04-24T02:32:11;6.13;;;3.58;;
71513;SDS011;59335;46.652;21.272;2023-04-24T02:35:14;5.70;;;3.50;;
71513;SDS011;59335;46.652;21.272;2023-04-24T02:38:17;5.72;;;3.67;;
71513;SDS011;59335;46.652;21.272;2023-04-24T02:41:20;5.95;;;3.65;;
71513;SDS011;59335;46.652;21.272;2023-04-24T02:44:23;5.45;;;3.45;;
71513;SDS011;59335;46.652;21.272;2023-04-24T02:47:26;4.97;;;3.22;;
71513;SDS011;59335;46.652;21.272;2023-04-24T02:50:28;5.40;;;3.30;;
71513;SDS011;59335;46.652;21.272;2023-04-24T02:53:31;5.90;;;3.40;;
71513;SDS011;59335;46.652;21.272;2023-04-24T02:56:34;6.25;;;3.35;;
71513;SDS011;59335;46.652;21.272;2023-04-24T02:59:38;6.82;;;3.70;;
71513;SDS011;59335;46.652;21.272;2023-04-24T03:02:41;6.22;;;3.30;;
71513;SDS011;59335;46.652;21.272;2023-04-24T03:05:45;5.50;;;3.40;;
71513;SDS011;59335;46.652;21.272;2023-04-24T03:08:48;5.18;;;3.15;;
71513;SDS011;59335;46.652;21.272;2023-04-24T03:11:50;6.05;;;3.35;;
71513;SDS011;59335;46.652;21.272;2023-04-24T03:14:53;6.07;;;3.30;;
71513;SDS011;59335;46.652;21.272;2023-04-24T03:17:56;5.47;;;3.20;;
71513;SDS011;59335;46.652;21.272;2023-04-24T03:20:58;5.70;;;3.53;;
71513;SDS011;59335;46.652;21.272;2023-04-24T03:24:02;6.53;;;3.45;;
71513;SDS011;59335;46.652;21.272;2023-04-24T03:27:04;6.32;;;3.60;;
71513;SDS011;59335;46.652;21.272;2023-04-24T03:30:25;6.07;;;3.70;;
71513;SDS011;59335;46.652;21.272;2023-04-24T03:33:33;5.20;;;3.30;;
71513;SDS011;59335;46.652;21.272;2023-04-24T03:36:36;5.93;;;3.10;;
71513;SDS011;59335;46.652;21.272;2023-04-24T03:39:42;6.57;;;3.60;;
71513;SDS011;59335;46.652;21.272;2023-04-24T03:42:46;7.15;;;3.55;;
71513;SDS011;59335;46.652;21.272;2023-04-24T03:45:49;6.15;;;3.30;;
71513;SDS011;59335;46.652;21.272;2023-04-24T03:48:52;5.28;;;3.15;;
71513;SDS011;59335;46.652;21.272;2023-04-24T03:52:00;6.07;;;3.40;;
71513;SDS011;59335;46.652;21.272;2023-04-24T03:55:03;5.70;;;3.78;;
71513;SDS011;59335;46.652;21.272;2023-04-24T03:58:11;5.40;;;3.30;;
71513;SDS011;59335;46.652;21.272;2023-04-24T04:01:16;5.93;;;3.38;;
71513;SDS011;59335;46.652;21.272;2023-04-24T04:04:24;4.93;;;3.20;;
71513;SDS011;59335;46.652;21.272;2023-04-24T04:07:27;6.10;;;3.33;;
71513;SDS011;59335;46.652;21.272;2023-04-24T04:10:29;5.28;;;3.50;;
71513;SDS011;59335;46.652;21.272;2023-04-24T04:13:32;5.85;;;3.42;;
71513;SDS011;59335;46.652;21.272;2023-04-24T04:16:35;5.82;;;3.42;;
71513;SDS011;59335;46.652;21.272;2023-04-24T04:19:41;6.03;;;3.25;;
71513;SDS011;59335;46.652;21.272;2023-04-24T04:22:44;5.50;;;3.20;;
71513;SDS011;59335;46.652;21.272;2023-04-24T04:25:52;5.82;;;3.50;;
71513;SDS011;59335;46.652;21.272;2023-04-24T04:28:59;5.65;;;3.55;;
71513;SDS011;59335;46.652;21.272;2023-04-24T04:32:07;6.40;;;3.28;;
71513;SDS011;59335;46.652;21.272;2023-04-24T04:35:10;5.57;;;3.60;;
71513;SDS011;59335;46.652;21.272;2023-04-24T04:38:13;5.83;;;3.30;;
71513;SDS011;59335;46.652;21.272;2023-04-24T04:41:21;6.13;;;3.55;;
71513;SDS011;59335;46.652;21.272;2023-04-24T04:44:24;5.45;;;3.35;;
71513;SDS011;59335;46.652;21.272;2023-04-24T04:47:29;5.93;;;3.33;;
71513;SDS011;59335;46.652;21.272;2023-04-24T04:50:35;5.63;;;3.47;;
71513;SDS011;59335;46.652;21.272;2023-04-24T04:53:41;5.57;;;3.33;;
71513;SDS011;59335;46.652;21.272;2023-04-24T04:56:44;5.63;;;3.20;;
71513;SDS011;59335;46.652;21.272;2023-04-24T04:59:46;5.57;;;3.25;;
71513;SDS011;59335;46.652;21.272;2023-04-24T05:03:03;6.22;;;3.47;;
71513;SDS011;59335;46.652;21.272;2023-04-24T05:06:23;6.93;;;3.67;;
71513;SDS011;59335;46.652;21.272;2023-04-24T05:09:26;5.63;;;3.30;;
71513;SDS011;59335;46.652;21.272;2023-04-24T05:12:36;5.38;;;3.30;;
71513;SDS011;59335;46.652;21.272;2023-04-24T05:15:39;5.40;;;3.50;;
71513;SDS011;59335;46.652;21.272;2023-04-24T05:18:42;6.03;;;3.22;;
71513;SDS011;59335;46.652;21.272;2023-04-24T05:21:48;5.25;;;3.60;;
71513;SDS011;59335;46.652;21.272;2023-04-24T05:24:51;5.73;;;3.33;;
71513;SDS011;59335;46.652;21.272;2023-04-24T05:28:30;6.65;;;3.60;;
71513;SDS011;59335;46.652;21.272;2023-04-24T05:31:40;6.90;;;3.40;;
71513;SDS011;59335;46.652;21.272;2023-04-24T05:34:43;6.18;;;3.20;;
71513;SDS011;59335;46.652;21.272;2023-04-24T05:37:46;11.77;;;3.92;;
71513;SDS011;59335;46.652;21.272;2023-04-24T05:40:49;8.37;;;4.10;;
71513;SDS011;59335;46.652;21.272;2023-04-24T05:43:52;8.70;;;4.55;;
71513;SDS011;59335;46.652;21.272;2023-04-24T05:46:56;6.90;;;4.07;;
71513;SDS011;59335;46.652;21.272;2023-04-24T05:49:59;10.90;;;4.50;;
71513;SDS011;59335;46.652;21.272;2023-04-24T05:53:02;8.25;;;4.32;;
71513;SDS011;59335;46.652;21.272;2023-04-24T05:56:09;8.20;;;4.10;;
71513;SDS011;59335;46.652;21.272;2023-04-24T05:59:12;7.70;;;4.32;;
71513;SDS011;59335;46.652;21.272;2023-04-24T06:02:15;7.72;;;4.57;;
71513;SDS011;59335;46.652;21.272;2023-04-24T06:05:18;7.38;;;4.50;;
71513;SDS011;59335;46.652;21.272;2023-04-24T06:08:22;8.90;;;4.50;;
71513;SDS011;59335;46.652;21.272;2023-04-24T06:11:25;7.33;;;4.50;;
71513;SDS011;59335;46.652;21.272;2023-04-24T06:14:29;7.43;;;4.65;;
71513;SDS011;59335;46.652;21.272;2023-04-24T06:18:12;10.35;;;4.53;;
71513;SDS011;59335;46.652;21.272;2023-04-24T06:21:16;8.18;;;4.72;;
71513;SDS011;59335;46.652;21.272;2023-04-24T06:24:24;8.82;;;4.72;;
71513;SDS011;59335;46.652;21.272;2023-04-24T06:27:30;8.57;;;4.40;;
71513;SDS011;59335;46.652;21.272;2023-04-24T06:30:33;8.57;;;4.10;;
71513;SDS011;59335;46.652;21.272;2023-04-24T06:33:39;8.60;;;4.22;;
71513;SDS011;59335;46.652;21.272;2023-04-24T06:36:42;8.40;;;3.97;;
71513;SDS011;59335;46.652;21.272;2023-04-24T06:39:45;9.23;;;4.35;;
71513;SDS011;59335;46.652;21.272;2023-04-24T06:42:48;7.87;;;4.40;;
71513;SDS011;59335;46.652;21.272;2023-04-24T06:45:51;7.75;;;4.13;;
71513;SDS011;59335;46.652;21.272;2023-04-24T06:48:55;6.55;;;4.25;;
71513;SDS011;59335;46.652;21.272;2023-04-24T06:52:00;9.07;;;4.47;;
71513;SDS011;59335;46.652;21.272;2023-04-24T06:55:03;10.63;;;4.50;;
71513;SDS011;59335;46.652;21.272;2023-04-24T06:58:06;12.60;;;4.30;;
71513;SDS011;59335;46.652;21.272;2023-04-24T07:01:10;10.70;;;4.68;;
71513;SDS011;59335;46.652;21.272;2023-04-24T07:04:13;12.95;;;4.75;;
71513;SDS011;59335;46.652;21.272;2023-04-24T07:07:16;8.38;;;4.50;;
71513;SDS011;59335;46.652;21.272;2023-04-24T07:10:19;8.93;;;4.20;;
71513;SDS011;59335;46.652;21.272;2023-04-24T07:13:23;8.03;;;4.17;;
71513;SDS011;59335;46.652;21.272;2023-04-24T07:16:26;8.95;;;3.95;;
71513;SDS011;59335;46.652;21.272;2023-04-24T07:19:29;8.52;;;4.40;;
71513;SDS011;59335;46.652;21.272;2023-04-24T07:22:32;10.60;;;4.25;;
71513;SDS011;59335;46.652;21.272;2023-04-24T07:25:35;7.60;;;3.90;;
71513;SDS011;59335;46.652;21.272;2023-04-24T07:28:37;7.10;;;4.00;;
71513;SDS011;59335;46.652;21.272;2023-04-24T07:31:40;9.90;;;3.90;;
71513;SDS011;59335;46.652;21.272;2023-04-24T07:34:43;7.00;;;4.28;;
71513;SDS011;59335;46.652;21.272;2023-04-24T07:37:46;7.80;;;4.05;;
71513;SDS011;59335;46.652;21.272;2023-04-24T07:40:51;8.88;;;3.95;;
71513;SDS011;59335;46.652;21.272;2023-04-24T07:43:53;6.93;;;3.97;;
71513;SDS011;59335;46.652;21.272;2023-04-24T07:46:56;8.55;;;4.05;;
71513;SDS011;59335;46.652;21.272;2023-04-24T07:49:59;9.05;;;4.10;;
71513;SDS011;59335;46.652;21.272;2023-04-24T07:53:02;13.07;;;4.50;;
71513;SDS011;59335;46.652;21.272;2023-04-24T07:56:05;9.85;;;4.60;;
71513;SDS011;59335;46.652;21.272;2023-04-24T07:59:08;9.80;;;4.40;;
71513;SDS011;59335;46.652;21.272;2023-04-24T08:02:12;9.07;;;4.30;;
71513;SDS011;59335;46.652;21.272;2023-04-24T08:05:15;11.00;;;4.30;;
71513;SDS011;59335;46.652;21.272;2023-04-24T08:08:21;10.23;;;4.10;;
71513;SDS011;59335;46.652;21.272;2023-04-24T08:11:25;8.75;;;4.10;;
71513;SDS011;59335;46.652;21.272;2023-04-24T08:14:28;9.70;;;4.00;;
71513;SDS011;59335;46.652;21.272;2023-04-24T08:17:30;9.15;;;3.90;;
71513;SDS011;59335;46.652;21.272;2023-04-24T08:20:33;11.02;;;4.53;;
71513;SDS011;59335;46.652;21.272;2023-04-24T08:23:37;9.88;;;3.85;;
71513;SDS011;59335;46.652;21.272;2023-04-24T08:26:41;10.93;;;4.28;;
71513;SDS011;59335;46.652;21.272;2023-04-24T08:29:54;11.07;;;4.40;;
71513;SDS011;59335;46.652;21.272;2023-04-24T08:33:13;11.15;;;5.43;;
71513;SDS011;59335;46.652;21.272;2023-04-24T08:36:17;9.32;;;4.63;;
71513;SDS011;59335;46.652;21.272;2023-04-24T08:39:27;14.73;;;4.10;;
71513;SDS011;59335;46.652;21.272;2023-04-24T08:42:34;10.73;;;4.45;;
71513;SDS011;59335;46.652;21.272;2023-04-24T08:45:40;9.97;;;4.30;;
71513;SDS011;59335;46.652;21.272;2023-04-24T08:48:43;7.25;;;3.90;;
71513;SDS011;59335;46.652;21.272;2023-04-24T08:51:52;9.35;;;4.15;;
71513;SDS011;59335;46.652;21.272;2023-04-24T08:54:57;13.15;;;4.38;;
71513;SDS011;59335;46.652;21.272;2023-04-24T08:58:03;11.27;;;4.53;;
71513;SDS011;59335;46.652;21.272;2023-04-24T09:01:16;8.70;;;4.30;;
71513;SDS011;59335;46.652;21.272;2023-04-24T09:04:55;11.82;;;4.50;;
71513;SDS011;59335;46.652;21.272;2023-04-24T09:11:51;10.07;;;4.10;;
71513;SDS011;59335;46.652;21.272;2023-04-24T09:14:58;12.02;;;4.20;;
71513;SDS011;59335;46.652;21.272;2023-04-24T09:18:04;13.73;;;4.60;;
71513;SDS011;59335;46.652;21.272;2023-04-24T09:21:09;9.88;;;4.30;;
71513;SDS011;59335;46.652;21.272;2023-04-24T09:24:18;9.85;;;4.43;;
71513;SDS011;59335;46.652;21.272;2023-04-24T09:27:24;13.43;;;4.55;;
71513;SDS011;59335;46.652;21.272;2023-04-24T09:30:27;11.68;;;4.40;;
71513;SDS011;59335;46.652;21.272;2023-04-24T09:33:31;13.10;;;4.30;;
71513;SDS011;59335;46.652;21.272;2023-04-24T09:36:40;12.63;;;4.10;;
71513;SDS011;59335;46.652;21.272;2023-04-24T09:39:45;10.32;;;3.95;;
71513;SDS011;59335;46.652;21.272;2023-04-24T09:43:12;12.50;;;4.20;;
71513;SDS011;59335;46.652;21.272;2023-04-24T09:46:15;8.18;;;4.43;;
71513;SDS011;59335;46.652;21.272;2023-04-24T09:52:27;10.95;;;4.38;;
71513;SDS011;59335;46.652;21.272;2023-04-24T09:55:33;12.73;;;4.47;;
71513;SDS011;59335;46.652;21.272;2023-04-24T09:58:48;11.77;;;4.75;;
71513;SDS011;59335;46.652;21.272;2023-04-24T10:01:54;10.25;;;4.40;;
71513;SDS011;59335;46.652;21.272;2023-04-24T10:05:01;12.40;;;4.40;;
71513;SDS011;59335;46.652;21.272;2023-04-24T10:08:06;15.00;;;4.60;;
71513;SDS011;59335;46.652;21.272;2023-04-24T10:11:14;10.82;;;5.25;;
71513;SDS011;59335;46.652;21.272;2023-04-24T10:14:23;10.40;;;4.50;;
71513;SDS011;59335;46.652;21.272;2023-04-24T10:17:30;10.57;;;4.30;;
71513;SDS011;59335;46.652;21.272;2023-04-24T10:20:38;10.40;;;3.93;;
71513;SDS011;59335;46.652;21.272;2023-04-24T10:23:44;15.70;;;4.40;;
71513;SDS011;59335;46.652;21.272;2023-04-24T10:27:12;14.50;;;4.22;;
71513;SDS011;59335;46.652;21.272;2023-04-24T10:30:23;11.57;;;4.35;;
71513;SDS011;59335;46.652;21.272;2023-04-24T10:33:27;9.50;;;3.95;;
71513;SDS011;59335;46.652;21.272;2023-04-24T10:36:32;10.80;;;4.10;;
71513;SDS011;59335;46.652;21.272;2023-04-24T10:39:37;10.80;;;4.45;;
71513;SDS011;59335;46.652;21.272;2023-04-24T10:42:42;9.90;;;4.47;;
71513;SDS011;59335;46.652;21.272;2023-04-24T10:46:06;11.80;;;4.65;;
71513;SDS011;59335;46.652;21.272;2023-04-24T10:49:12;9.55;;;4.10;;
71513;SDS011;59335;46.652;21.272;2023-04-24T10:52:17;13.17;;;4.63;;
71513;SDS011;59335;46.652;21.272;2023-04-24T10:55:57;11.98;;;4.55;;
71513;SDS011;59335;46.652;21.272;2023-04-24T10:58:56;10.07;;;4.47;;
71513;SDS011;59335;46.652;21.272;2023-04-24T11:02:00;10.60;;;4.43;;
71513;SDS011;59335;46.652;21.272;2023-04-24T11:05:05;11.40;;;4.60;;
71513;SDS011;59335;46.652;21.272;2023-04-24T11:08:14;9.30;;;4.20;;
71513;SDS011;59335;46.652;21.272;2023-04-24T11:11:19;10.48;;;4.00;;
71513;SDS011;59335;46.652;21.272;2023-04-24T11:14:24;12.63;;;4.60;;
71513;SDS011;59335;46.652;21.272;2023-04-24T11:17:29;15.93;;;4.25;;
71513;SDS011;59335;46.652;21.272;2023-04-24T11:20:34;11.93;;;4.60;;
71513;SDS011;59335;46.652;21.272;2023-04-24T11:23:39;12.50;;;3.93;;
71513;SDS011;59335;46.652;21.272;2023-04-24T11:26:43;11.43;;;4.13;;
71513;SDS011;59335;46.652;21.272;2023-04-24T11:33:06;11.77;;;4.55;;
71513;SDS011;59335;46.652;21.272;2023-04-24T11:36:10;9.82;;;4.15;;
71513;SDS011;59335;46.652;21.272;2023-04-24T11:39:13;12.77;;;4.30;;
71513;SDS011;59335;46.652;21.272;2023-04-24T11:42:17;9.88;;;4.55;;
71513;SDS011;59335;46.652;21.272;2023-04-24T11:48:34;10.68;;;4.68;;
71513;SDS011;59335;46.652;21.272;2023-04-24T11:51:41;11.52;;;4.88;;
71513;SDS011;59335;46.652;21.272;2023-04-24T11:54:54;15.17;;;4.50;;
71513;SDS011;59335;46.652;21.272;2023-04-24T11:57:58;13.25;;;4.55;;
71513;SDS011;59335;46.652;21.272;2023-04-24T12:01:02;17.35;;;4.68;;
71513;SDS011;59335;46.652;21.272;2023-04-24T12:04:05;13.40;;;4.70;;
71513;SDS011;59335;46.652;21.272;2023-04-24T12:07:08;9.75;;;3.90;;
71513;SDS011;59335;46.652;21.272;2023-04-24T12:10:12;15.20;;;4.60;;
71513;SDS011;59335;46.652;21.272;2023-04-24T12:13:15;13.95;;;4.78;;
71513;SDS011;59335;46.652;21.272;2023-04-24T12:16:18;11.43;;;4.50;;
71513;SDS011;59335;46.652;21.272;2023-04-24T12:19:22;12.10;;;4.25;;
71513;SDS011;59335;46.652;21.272;2023-04-24T12:22:25;10.65;;;4.00;;
71513;SDS011;59335;46.652;21.272;2023-04-24T12:25:29;12.93;;;4.60;;
71513;SDS011;59335;46.652;21.272;2023-04-24T12:28:36;10.32;;;3.90;;
71513;SDS011;59335;46.652;21.272;2023-04-24T12:31:41;14.68;;;4.40;;
71513;SDS011;59335;46.652;21.272;2023-04-24T12:34:49;9.73;;;3.97;;
71513;SDS011;59335;46.652;21.272;2023-04-24T12:37:56;11.82;;;4.10;;
71513;SDS011;59335;46.652;21.272;2023-04-24T12:41:11;12.43;;;4.13;;
71513;SDS011;59335;46.652;21.272;2023-04-24T12:44:15;13.65;;;4.20;;
71513;SDS011;59335;46.652;21.272;2023-04-24T12:47:20;11.88;;;4.13;;
71513;SDS011;59335;46.652;21.272;2023-04-24T12:50:23;10.82;;;3.97;;
71513;SDS011;59335;46.652;21.272;2023-04-24T12:53:26;8.98;;;4.35;;
71513;SDS011;59335;46.652;21.272;2023-04-24T12:56:33;15.73;;;5.27;;
71513;SDS011;59335;46.652;21.272;2023-04-24T12:59:35;10.45;;;4.10;;
71513;SDS011;59335;46.652;21.272;2023-04-24T13:02:39;9.15;;;4.22;;
71513;SDS011;59335;46.652;21.272;2023-04-24T13:05:43;11.20;;;4.20;;
71513;SDS011;59335;46.652;21.272;2023-04-24T13:08:46;10.23;;;4.20;;
71513;SDS011;59335;46.652;21.272;2023-04-24T13:11:51;9.20;;;3.83;;
71513;SDS011;59335;46.652;21.272;2023-04-24T13:14:55;14.82;;;4.10;;
71513;SDS011;59335;46.652;21.272;2023-04-24T13:17:59;10.50;;;4.22;;
71513;SDS011;59335;46.652;21.272;2023-04-24T13:21:03;9.68;;;3.97;;
71513;SDS011;59335;46.652;21.272;2023-04-24T13:24:06;11.30;;;4.15;;
71513;SDS011;59335;46.652;21.272;2023-04-24T13:27:10;13.33;;;4.13;;
71513;SDS011;59335;46.652;21.272;2023-04-24T13:30:13;15.38;;;4.15;;
71513;SDS011;59335;46.652;21.272;2023-04-24T13:33:16;9.70;;;3.95;;
71513;SDS011;59335;46.652;21.272;2023-04-24T13:36:19;10.80;;;4.32;;
71513;SDS011;59335;46.652;21.272;2023-04-24T13:39:22;11.57;;;4.53;;
71513;SDS011;59335;46.652;21.272;2023-04-24T13:42:37;9.27;;;4.03;;
71513;SDS011;59335;46.652;21.272;2023-04-24T13:45:40;11.95;;;4.20;;
71513;SDS011;59335;46.652;21.272;2023-04-24T13:48:46;13.38;;;4.35;;
71513;SDS011;59335;46.652;21.272;2023-04-24T13:51:51;14.27;;;4.30;;
71513;SDS011;59335;46.652;21.272;2023-04-24T13:54:56;11.23;;;4.25;;
71513;SDS011;59335;46.652;21.272;2023-04-24T13:58:01;16.87;;;4.53;;
71513;SDS011;59335;46.652;21.272;2023-04-24T14:01:06;10.90;;;4.22;;
71513;SDS011;59335;46.652;21.272;2023-04-24T14:04:10;10.38;;;4.15;;
71513;SDS011;59335;46.652;21.272;2023-04-24T14:07:14;11.57;;;4.30;;
71513;SDS011;59335;46.652;21.272;2023-04-24T14:10:17;11.98;;;4.15;;
71513;SDS011;59335;46.652;21.272;2023-04-24T14:13:20;9.50;;;4.10;;
71513;SDS011;59335;46.652;21.272;2023-04-24T14:16:22;10.43;;;4.30;;
71513;SDS011;59335;46.652;21.272;2023-04-24T14:19:25;16.85;;;4.60;;
71513;SDS011;59335;46.652;21.272;2023-04-24T14:22:28;13.27;;;4.40;;
71513;SDS011;59335;46.652;21.272;2023-04-24T14:25:30;11.60;;;4.40;;
71513;SDS011;59335;46.652;21.272;2023-04-24T14:28:33;12.70;;;4.10;;
71513;SDS011;59335;46.652;21.272;2023-04-24T14:31:36;13.10;;;4.35;;
71513;SDS011;59335;46.652;21.272;2023-04-24T14:34:39;12.02;;;4.25;;
71513;SDS011;59335;46.652;21.272;2023-04-24T14:37:41;9.75;;;4.00;;
71513;SDS011;59335;46.652;21.272;2023-04-24T14:40:44;11.50;;;4.35;;
71513;SDS011;59335;46.652;21.272;2023-04-24T14:44:07;14.83;;;4.30;;
71513;SDS011;59335;46.652;21.272;2023-04-24T14:47:10;15.50;;;4.28;;
71513;SDS011;59335;46.652;21.272;2023-04-24T14:50:12;12.30;;;3.88;;
71513;SDS011;59335;46.652;21.272;2023-04-24T14:53:16;14.23;;;4.30;;
71513;SDS011;59335;46.652;21.272;2023-04-24T14:56:18;12.20;;;4.18;;
71513;SDS011;59335;46.652;21.272;2023-04-24T14:59:21;9.53;;;4.17;;
71513;SDS011;59335;46.652;21.272;2023-04-24T15:02:24;10.27;;;4.30;;
71513;SDS011;59335;46.652;21.272;2023-04-24T15:05:27;9.82;;;4.00;;
71513;SDS011;59335;46.652;21.272;2023-04-24T15:08:31;8.77;;;3.55;;
71513;SDS011;59335;46.652;21.272;2023-04-24T15:11:33;9.80;;;3.92;;
71513;SDS011;59335;46.652;21.272;2023-04-24T15:14:36;16.73;;;4.67;;
71513;SDS011;59335;46.652;21.272;2023-04-24T15:17:53;13.30;;;4.57;;
71513;SDS011;59335;46.652;21.272;2023-04-24T15:20:55;19.55;;;4.40;;
71513;SDS011;59335;46.652;21.272;2023-04-24T15:23:58;14.25;;;4.20;;
71513;SDS011;59335;46.652;21.272;2023-04-24T15:27:01;13.30;;;4.50;;
71513;SDS011;59335;46.652;21.272;2023-04-24T15:30:05;14.80;;;4.10;;
71513;SDS011;59335;46.652;21.272;2023-04-24T15:33:08;14.55;;;4.30;;
71513;SDS011;59335;46.652;21.272;2023-04-24T15:36:11;12.75;;;4.60;;
71513;SDS011;59335;46.652;21.272;2023-04-24T15:39:15;13.52;;;4.40;;
71513;SDS011;59335;46.652;21.272;2023-04-24T15:42:18;11.77;;;4.20;;
71513;SDS011;59335;46.652;21.272;2023-04-24T15:45:20;14.10;;;4.57;;
71513;SDS011;59335;46.652;21.272;2023-04-24T15:48:24;14.60;;;4.15;;
71513;SDS011;59335;46.652;21.272;2023-04-24T15:51:27;11.70;;;4.07;;
71513;SDS011;59335;46.652;21.272;2023-04-24T15:54:29;12.50;;;3.88;;
71513;SDS011;59335;46.652;21.272;2023-04-24T15:57:32;12.32;;;3.85;;
71513;SDS011;59335;46.652;21.272;2023-04-24T16:00:35;12.00;;;4.30;;
71513;SDS011;59335;46.652;21.272;2023-04-24T16:03:38;11.55;;;4.15;;
71513;SDS011;59335;46.652;21.272;2023-04-24T16:06:42;11.52;;;4.38;;
71513;SDS011;59335;46.652;21.272;2023-04-24T16:09:45;15.15;;;4.30;;
71513;SDS011;59335;46.652;21.272;2023-04-24T16:12:48;13.80;;;4.38;;
71513;SDS011;59335;46.652;21.272;2023-04-24T16:15:53;10.73;;;3.90;;
71513;SDS011;59335;46.652;21.272;2023-04-24T16:18:55;9.68;;;4.47;;
71513;SDS011;59335;46.652;21.272;2023-04-24T16:21:58;11.68;;;4.20;;
71513;SDS011;59335;46.652;21.272;2023-04-24T16:25:02;11.32;;;4.05;;
71513;SDS011;59335;46.652;21.272;2023-04-24T16:28:05;10.23;;;4.07;;
71513;SDS011;59335;46.652;21.272;2023-04-24T16:31:08;10.73;;;3.80;;
71513;SDS011;59335;46.652;21.272;2023-04-24T16:34:11;11.68;;;4.05;;
71513;SDS011;59335;46.652;21.272;2023-04-24T16:37:13;8.90;;;4.00;;
71513;SDS011;59335;46.652;21.272;2023-04-24T16:40:17;12.13;;;3.85;;
71513;SDS011;59335;46.652;21.272;2023-04-24T16:43:20;11.27;;;4.28;;
71513;SDS011;59335;46.652;21.272;2023-04-24T16:46:22;12.97;;;3.97;;
71513;SDS011;59335;46.652;21.272;2023-04-24T16:49:25;10.75;;;4.70;;
71513;SDS011;59335;46.652;21.272;2023-04-24T16:52:32;9.00;;;4.10;;
71513;SDS011;59335;46.652;21.272;2023-04-24T16:55:34;11.93;;;4.22;;
71513;SDS011;59335;46.652;21.272;2023-04-24T16:58:38;9.15;;;4.07;;
71513;SDS011;59335;46.652;21.272;2023-04-24T17:01:41;12.03;;;4.00;;
71513;SDS011;59335;46.652;21.272;2023-04-24T17:04:44;9.77;;;4.38;;
71513;SDS011;59335;46.652;21.272;2023-04-24T17:07:49;10.60;;;4.22;;
71513;SDS011;59335;46.652;21.272;2023-04-24T17:10:51;9.13;;;3.60;;
71513;SDS011;59335;46.652;21.272;2023-04-24T17:13:54;12.43;;;4.22;;
71513;SDS011;59335;46.652;21.272;2023-04-24T17:16:57;11.10;;;4.17;;
71513;SDS011;59335;46.652;21.272;2023-04-24T17:20:00;10.27;;;4.50;;
71513;SDS011;59335;46.652;21.272;2023-04-24T17:23:22;9.65;;;3.83;;
71513;SDS011;59335;46.652;21.272;2023-04-24T17:26:25;9.98;;;3.70;;
71513;SDS011;59335;46.652;21.272;2023-04-24T17:29:30;9.68;;;4.00;;
71513;SDS011;59335;46.652;21.272;2023-04-24T17:32:34;8.00;;;3.70;;
71513;SDS011;59335;46.652;21.272;2023-04-24T17:35:37;11.10;;;4.22;;
71513;SDS011;59335;46.652;21.272;2023-04-24T17:38:40;11.30;;;4.50;;
71513;SDS011;59335;46.652;21.272;2023-04-24T17:41:44;10.00;;;4.10;;
71513;SDS011;59335;46.652;21.272;2023-04-24T17:44:47;11.18;;;3.97;;
71513;SDS011;59335;46.652;21.272;2023-04-24T17:47:50;11.47;;;4.47;;
71513;SDS011;59335;46.652;21.272;2023-04-24T17:50:54;10.57;;;4.20;;
71513;SDS011;59335;46.652;21.272;2023-04-24T17:53:58;8.80;;;3.95;;
71513;SDS011;59335;46.652;21.272;2023-04-24T17:57:09;9.40;;;3.83;;
71513;SDS011;59335;46.652;21.272;2023-04-24T18:00:14;8.77;;;4.30;;
71513;SDS011;59335;46.652;21.272;2023-04-24T18:03:17;9.97;;;3.90;;
71513;SDS011;59335;46.652;21.272;2023-04-24T18:06:21;10.10;;;4.05;;
71513;SDS011;59335;46.652;21.272;2023-04-24T18:09:24;9.75;;;3.90;;
71513;SDS011;59335;46.652;21.272;2023-04-24T18:12:27;8.35;;;4.22;;
71513;SDS011;59335;46.652;21.272;2023-04-24T18:15:30;8.45;;;4.03;;
71513;SDS011;59335;46.652;21.272;2023-04-24T18:18:35;8.60;;;3.70;;
71513;SDS011;59335;46.652;21.272;2023-04-24T18:21:39;10.10;;;4.07;;
71513;SDS011;59335;46.652;21.272;2023-04-24T18:24:42;7.88;;;3.65;;